Terminal Aerodrome Forecast
Issued by NWS

Home | Current Version | Previous Version | Text Only | Print | Product List | Glossary On
Versions: 1 2 3 4 5 6 7 8 9 10 11 12 13 14 15 16 17 18 19 20 21 22 23 24 25 26
000
FTUS46 KLOX 301100
TAFSBP
TAF
KSBP 301124Z 3012/3112 VRB03KT P6SM OVC006
     FM301600 VRB03KT P6SM SCT006 BKN150
     FM301800 28005KT P6SM BKN150
     FM302100 29012KT P6SM BKN150
     FM310300 31007KT P6SM SCT150
     FM310700 VRB03KT P6SM BKN006=

USA.gov is the U.S. government's official web portal to all federal, state and local government web resources and services.